Time;durP1;ratioP1;P1;durP2;ratioP2;P2;SDS_P1;SDS_P2;PMS_P1;PMS_P2;Temp;Humidity;BMP_temperature;BMP_pressure;BME280_temperature;BME280_humidity;BME280_pressure;Samples;Min_cycle;Max_cycle;Signal;HPM_P1;HPM_P2
2021/08/14 00:05:08;;;;;;;1999.90;999.90;;;;;;;23.56;55.20;101553.69;15686038;28;20476;-59
2021/08/14 00:12:40;;;;;;;1999.90;999.90;;;;;;;23.54;54.46;101561.81;15668156;28;20033;-62
2021/08/14 00:20:14;;;;;;;1999.90;999.90;;;;;;;23.53;53.91;101560.19;15685110;28;20072;-62
2021/08/14 00:27:47;;;;;;;1999.90;999.90;;;;;;;23.45;53.84;101562.22;15683532;28;20472;-60
2021/08/14 00:35:22;;;;;;;1999.90;999.90;;;;;;;23.35;54.54;101567.88;15640193;28;20049;-61
2021/08/14 00:42:56;;;;;;;1999.90;999.90;;;;;;;23.21;56.00;101566.56;15622684;28;20053;-63
2021/08/14 00:50:30;;;;;;;1999.90;999.90;;;;;;;23.17;56.04;101579.97;15620691;28;20049;-61
2021/08/14 00:58:07;;;;;;;1999.90;999.90;;;;;;;23.03;56.93;101569.34;15620928;28;20042;-60
2021/08/14 01:05:43;;;;;;;1999.90;999.90;;;;;;;22.91;57.58;101566.81;15604030;28;20050;-60
2021/08/14 01:13:23;;;;;;;1999.90;999.90;;;;;;;22.70;58.51;101575.97;15586470;28;20049;-58
2021/08/14 01:21:02;;;;;;;1999.90;999.90;;;;;;;22.51;58.51;101587.66;15604784;28;20145;-61
2021/08/14 01:28:38;;;;;;;1999.90;999.90;;;;;;;22.34;59.18;101594.00;15605656;28;20111;-62
2021/08/14 01:36:13;;;;;;;1999.90;999.90;;;;;;;22.05;60.10;101598.56;15684271;28;20045;-60
2021/08/14 01:43:58;;;;;;;1999.90;999.90;;;;;;;21.96;60.09;101598.06;15681020;28;20041;-59
2021/08/14 01:51:45;;;;;;;1999.90;999.90;;;;;;;21.74;60.33;101600.66;15645748;28;20052;-60
2021/08/14 01:59:38;;;;;;;1999.90;999.90;;;;;;;21.57;61.13;101599.25;15678038;28;20143;-62
2021/08/14 02:07:37;;;;;;;1999.90;999.90;;;;;;;21.38;61.71;101590.09;15678221;28;20045;-61
2021/08/14 02:15:51;;;;;;;1999.90;999.90;;;;;;;21.07;62.76;101592.06;15637623;28;20083;-59
2021/08/14 02:23:23;;;;;;;1999.90;999.90;;;;;;;20.96;63.57;101603.28;15677570;28;20120;-62
2021/08/14 02:30:57;;;;;;;1999.90;999.90;;;;;;;20.84;63.89;101595.00;15678321;28;20045;-64
2021/08/14 02:38:29;;;;;;;1999.90;999.90;;;;;;;20.91;63.59;101592.25;15677053;28;20079;-63
2021/08/14 02:46:17;;;;;;;1999.90;999.90;;;;;;;20.86;64.03;101608.78;15677534;28;20049;-62
2021/08/14 02:54:07;;;;;;;1999.90;999.90;;;;;;;20.93;64.07;101603.22;15677291;28;20056;-61
2021/08/14 03:01:42;;;;;;;1999.90;999.90;;;;;;;21.01;63.07;101590.75;15658885;28;20120;-62
2021/08/14 03:09:14;;;;;;;1999.90;999.90;;;;;;;20.97;63.53;101595.59;15659083;28;20037;-63
2021/08/14 03:17:29;;;;;;;;;;;;;;;;;;;;;
2021/08/14 03:25:12;;;;;;;1999.90;999.90;;;;;;;20.90;63.38;101606.81;15655849;28;20136;-63
2021/08/14 03:32:45;;;;;;;1999.90;999.90;;;;;;;20.62;63.13;101610.00;15645041;28;20045;-60
2021/08/14 03:40:20;;;;;;;1999.90;999.90;;;;;;;20.59;63.41;101602.28;15625268;28;20104;-59
2021/08/14 03:47:52;;;;;;;1999.90;999.90;;;;;;;20.51;64.49;101611.84;15625005;28;20038;-61
2021/08/14 03:55:25;;;;;;;1999.90;999.90;;;;;;;20.38;63.43;101614.88;15626523;28;20060;-60
2021/08/14 04:02:58;;;;;;;1999.90;999.90;;;;;;;20.36;64.10;101605.09;15628753;28;20059;-57
2021/08/14 04:10:32;;;;;;;1999.90;999.90;;;;;;;20.22;64.04;101614.19;15605864;28;20133;-63
2021/08/14 04:18:04;;;;;;;1999.90;999.90;;;;;;;20.30;64.17;101618.75;15623029;28;20052;-60
2021/08/14 04:25:38;;;;;;;1999.90;999.90;;;;;;;20.20;64.75;101625.06;15621565;28;20076;-60
2021/08/14 04:33:16;;;;;;;1999.90;999.90;;;;;;;19.98;66.36;101631.53;15650589;28;20533;-62
2021/08/14 04:40:49;;;;;;;1999.90;999.90;;;;;;;20.12;65.88;101637.47;15682980;28;20460;-63
2021/08/14 04:48:22;;;;;;;1999.90;999.90;;;;;;;20.19;65.92;101629.09;15682961;28;20045;-60
2021/08/14 04:55:59;;;;;;;1999.90;999.90;;;;;;;20.33;65.39;101625.72;15682952;28;20399;-60
2021/08/14 05:03:31;;;;;;;1999.90;999.90;;;;;;;20.51;65.04;101629.69;15682095;28;20052;-60
2021/08/14 05:11:05;;;;;;;1999.90;999.90;;;;;;;20.53;64.77;101632.13;15682430;28;20103;-60
2021/08/14 05:18:37;;;;;;;1999.90;999.90;;;;;;;20.77;64.33;101625.25;15663660;28;20536;-62
2021/08/14 05:26:15;;;;;;;1999.90;999.90;;;;;;;20.95;64.51;101627.19;15663697;28;20148;-64
2021/08/14 05:33:48;;;;;;;1999.90;999.90;;;;;;;20.96;64.19;101623.13;15646226;28;20073;-63
2021/08/14 05:41:22;;;;;;;1999.90;999.90;;;;;;;21.47;62.37;101636.03;15616583;28;20048;-62
2021/08/14 05:48:54;;;;;;;1999.90;999.90;;;;;;;22.06;61.35;101642.81;15617822;28;20080;-61
2021/08/14 05:56:30;;;;;;;1999.90;999.90;;;;;;;22.39;59.95;101661.88;15616539;28;20107;-61
2021/08/14 06:04:12;;;;;;;1999.90;999.90;;;;;;;22.77;59.03;101669.94;15599340;28;20041;-59
2021/08/14 06:11:46;;;;;;;1999.90;999.90;;;;;;;22.52;58.76;101660.38;15598926;28;20072;-58
2021/08/14 06:19:18;;;;;;;1999.90;999.90;;;;;;;23.23;57.38;101657.28;15616188;28;20571;-59
2021/08/14 06:27:07;;;;;;;1999.90;999.90;;;;;;;23.49;57.46;101651.31;15616308;28;20049;-57
2021/08/14 06:34:39;;;;;;;1999.90;999.90;;;;;;;23.35;57.20;101645.56;15656456;28;20083;-58
2021/08/14 06:42:12;;;;;;;1999.90;999.90;;;;;;;24.07;55.61;101653.22;15677076;28;20047;-58
2021/08/14 06:49:47;;;;;;;1999.90;999.90;;;;;;;24.40;54.93;101660.63;15681254;28;20763;-61
2021/08/14 06:57:21;;;;;;;1999.90;999.90;;;;;;;24.92;53.06;101660.25;15671299;28;20068;-61
2021/08/14 07:04:53;;;;;;;1999.90;999.90;;;;;;;25.24;52.37;101654.50;15689156;28;20997;-60
2021/08/14 07:12:26;;;;;;;1999.90;999.90;;;;;;;25.44;51.97;101652.00;15670479;28;20453;-61
2021/08/14 07:19:59;;;;;;;1999.90;999.90;;;;;;;25.12;50.05;101658.63;15688064;28;20045;-60
2021/08/14 07:27:39;;;;;;;1999.90;999.90;;;;;;;25.61;51.13;101662.53;15688497;28;20371;-63
2021/08/14 07:35:12;;;;;;;1999.90;999.90;;;;;;;25.61;48.95;101662.53;15623135;28;20049;-62
2021/08/14 07:42:47;;;;;;;1999.90;999.90;;;;;;;26.08;48.40;101668.91;15624778;28;20479;-62
2021/08/14 07:50:20;;;;;;;1999.90;999.90;;;;;;;25.70;49.08;101656.41;15606641;28;20046;-59
2021/08/14 07:58:00;;;;;;;1999.90;999.90;;;;;;;26.33;47.20;101657.28;15623627;28;20044;-60
2021/08/14 08:05:32;;;;;;;1999.90;999.90;;;;;;;25.77;48.23;101657.22;15622790;28;20452;-63
2021/08/14 08:13:35;;;;;;;1999.90;999.90;;;;;;;26.42;45.29;101644.16;15624001;28;20490;-63
2021/08/14 08:21:07;;;;;;;1999.90;999.90;;;;;;;27.76;44.74;101639.59;15622938;28;20046;-62
2021/08/14 08:28:41;;;;;;;;;;;;;;;27.33;44.95;101631.47;15622912;28;20076;-62
2021/08/14 08:36:13;;;;;;;1999.90;999.90;;;;;;;26.91;45.53;101618.41;15658949;28;20038;-63
2021/08/14 08:44:03;;;;;;;1999.90;999.90;;;;;;;26.39;45.49;101615.59;15684278;28;20182;-63
2021/08/14 08:51:38;;;;;;;1999.90;999.90;;;;;;;26.74;45.83;101617.31;15669825;28;20053;-61
2021/08/14 08:59:16;;;;;;;1999.90;999.90;;;;;;;26.87;45.54;101604.09;15643133;28;20551;-63
2021/08/14 09:06:52;;;;;;;1999.90;999.90;;;;;;;27.86;43.44;101602.16;15662182;28;20073;-66
2021/08/14 09:14:25;;;;;;;1999.90;999.90;;;;;;;28.21;45.03;101600.00;15602829;28;20132;-63
2021/08/14 09:22:00;;;;;;;1999.90;999.90;;;;;;;27.65;41.96;101593.00;15624828;28;20041;-64
2021/08/14 09:29:59;;;;;;;1999.90;999.90;;;;;;;28.13;41.65;101589.88;15691263;22;20167;-76
2021/08/14 09:37:43;;;;;;;1999.90;999.90;;;;;;;29.00;39.89;101579.41;15761273;28;20047;-77
2021/08/14 09:45:23;;;;;;;1999.90;999.90;;;;;;;28.69;40.42;101582.41;15765434;28;20444;-72
2021/08/14 09:53:10;;;;;;;1999.90;999.90;;;;;;;30.06;36.99;101587.00;15672657;28;20095;-73
2021/08/14 10:00:45;;;;;;;1999.90;999.90;;;;;;;29.98;37.76;101574.84;15677339;28;20044;-77
2021/08/14 10:08:19;;;;;;;1999.90;999.90;;;;;;;30.20;35.69;101566.53;15666900;28;20065;-77
2021/08/14 10:15:52;;;;;;;1999.90;999.90;;;;;;;30.63;37.29;101563.34;15618390;28;20045;-77
2021/08/14 10:23:25;;;;;;;1999.90;999.90;;;;;;;28.38;40.48;101538.66;15595997;28;20041;-76
2021/08/14 10:31:03;;;;;;;1999.90;999.90;;;;;;;31.31;35.07;101527.72;15616011;28;20073;-77
2021/08/14 10:38:40;;;;;;;1999.90;999.90;;;;;;;29.99;37.02;101523.84;15599074;28;20068;-77
2021/08/14 10:46:46;;;;;;;1999.90;999.90;;;;;;;30.24;35.85;101517.53;15616213;28;20461;-75
2021/08/14 10:54:55;;;;;;;1999.90;999.90;;;;;;;31.25;34.85;101512.25;15616600;28;20569;-76
2021/08/14 11:02:35;;;;;;;1999.90;999.90;;;;;;;31.72;34.34;101508.75;15673283;28;20037;-73
2021/08/14 11:10:12;;;;;;;1999.90;999.90;;;;;;;32.86;33.71;101501.19;15694817;28;20037;-75
2021/08/14 11:18:19;;;;;;;1999.90;999.90;;;;;;;33.74;30.31;101493.22;15644618;28;20049;-75
2021/08/14 11:25:58;;;;;;;1999.90;999.90;;;;;;;33.75;31.92;101480.38;15688074;28;20048;-76
2021/08/14 11:33:47;;;;;;;1999.90;999.90;;;;;;;31.64;34.05;101469.06;15698295;28;20045;-76
2021/08/14 11:41:21;;;;;;;1999.90;999.90;;;;;;;31.55;33.87;101449.53;15699767;28;20531;-76
2021/08/14 11:48:53;;;;;;;1999.90;999.90;;;;;;;32.22;31.94;101446.50;15676126;28;20394;-77
2021/08/14 11:56:31;;;;;;;1999.90;999.90;;;;;;;33.64;30.63;101434.50;15679420;28;20090;-77
2021/08/14 12:04:10;;;;;;;1999.90;999.90;;;;;;;33.17;34.13;101444.25;15664957;28;20044;-76
2021/08/14 12:11:54;;;;;;;1999.90;999.90;;;;;;;33.51;31.63;101436.72;15625054;28;20532;-75
2021/08/14 12:19:26;;;;;;;1999.90;999.90;;;;;;;33.30;29.95;101436.28;15612984;28;20065;-77
2021/08/14 12:27:00;;;;;;;1999.90;999.90;;;;;;;33.40;30.05;101442.13;15628380;28;20034;-77
2021/08/14 12:34:52;;;;;;;;;;;;;;;;;;;;;
2021/08/14 12:42:47;;;;;;;1999.90;999.90;;;;;;;34.71;27.54;101409.63;15627648;28;20049;-77
2021/08/14 12:50:26;;;;;;;1999.90;999.90;;;;;;;37.04;26.21;101402.31;15625802;28;20129;-77
2021/08/14 12:58:04;;;;;;;1999.90;999.90;;;;;;;38.96;23.29;101393.59;15650875;28;20640;-77
2021/08/14 13:05:40;;;;;;;1999.90;999.90;;;;;;;39.74;22.35;101391.34;15689649;28;20047;-77
2021/08/14 13:13:51;;;;;;;1999.90;999.90;;;;;;;38.07;22.59;101387.53;15691615;28;20079;-77
2021/08/14 13:21:58;;;;;;;1999.90;999.90;;;;;;;39.55;21.99;101387.25;15690954;28;20084;-77
2021/08/14 13:29:47;;;;;;;1999.90;999.90;;;;;;;36.67;23.65;101367.78;15691542;28;20110;-77
2021/08/14 13:37:19;;;;;;;1999.90;999.90;;;;;;;37.95;22.83;101357.47;15689955;28;20041;-77
2021/08/14 13:44:53;;;;;;;1999.90;999.90;;;;;;;35.16;27.67;101344.13;15686788;28;20405;-77
2021/08/14 13:52:26;;;;;;;1999.90;999.90;;;;;;;33.27;30.22;101335.22;15679646;28;20045;-76
2021/08/14 13:59:59;;;;;;;1999.90;999.90;;;;;;;32.77;31.77;101325.63;15614807;28;20453;-76
2021/08/14 14:07:32;;;;;;;1999.90;999.90;;;;;;;31.86;30.93;101309.19;15625555;28;20084;-76
2021/08/14 14:15:06;;;;;;;1999.90;999.90;;;;;;;31.43;33.71;101303.28;15626504;28;20109;-76
2021/08/14 14:22:40;;;;;;;1999.90;999.90;;;;;;;31.39;33.67;101289.00;15626856;28;20049;-76
2021/08/14 14:30:15;;;;;;;1999.90;999.90;;;;;;;30.93;34.74;101293.38;15624801;28;20140;-76
2021/08/14 14:37:47;;;;;;;1999.90;999.90;;;;;;;30.74;34.94;101284.50;15612035;28;20527;-74
2021/08/14 14:45:20;;;;;;;1999.90;999.90;;;;;;;30.67;34.78;101261.69;15675413;28;20051;-73
2021/08/14 14:52:53;;;;;;;1999.90;999.90;;;;;;;30.14;34.37;101266.16;15669561;28;20567;-74
2021/08/14 15:00:26;;;;;;;1999.90;999.90;;;;;;;30.25;35.02;101249.38;15711060;28;20057;-73
2021/08/14 15:08:08;;;;;;;1999.90;999.90;;;;;;;30.37;35.24;101237.09;15684149;28;20056;-75
2021/08/14 15:15:42;;;;;;;1999.90;999.90;;;;;;;30.68;36.79;101225.84;15673422;28;20041;-75
2021/08/14 15:23:14;;;;;;;1999.90;999.90;;;;;;;30.32;34.59;101225.31;15689554;28;20037;-75
2021/08/14 15:30:48;;;;;;;1999.90;999.90;;;;;;;30.17;36.08;101213.44;15692875;28;20077;-75
2021/08/14 15:38:20;;;;;;;1999.90;999.90;;;;;;;30.07;36.17;101203.06;15691605;28;20041;-75
2021/08/14 15:45:54;;;;;;;1999.90;999.90;;;;;;;29.76;36.05;101194.06;15669480;22;20127;31
2021/08/14 15:53:27;;;;;;;1999.90;999.90;;;;;;;29.61;35.61;101202.31;15684510;28;20561;-76
2021/08/14 16:00:59;;;;;;;1999.90;999.90;;;;;;;29.54;36.17;101182.38;15721390;28;20055;-74
2021/08/14 16:08:33;;;;;;;1999.90;999.90;;;;;;;29.74;36.63;101182.22;15751493;28;20420;-74
2021/08/14 16:16:05;;;;;;;1999.90;999.90;;;;;;;29.81;37.42;101176.28;15753368;28;20049;-76
2021/08/14 16:23:39;;;;;;;1999.90;999.90;;;;;;;29.60;37.14;101164.13;15717986;28;20037;-76
2021/08/14 16:31:13;;;;;;;1999.90;999.90;;;;;;;29.16;38.48;101159.94;15733366;28;20425;-77
2021/08/14 16:38:46;;;;;;;1999.90;999.90;;;;;;;29.28;41.89;101159.22;15727704;28;20443;-75
2021/08/14 16:46:19;;;;;;;1999.90;999.90;;;;;;;29.00;39.97;101149.28;15746536;28;20052;-75
2021/08/14 16:53:52;;;;;;;1999.90;999.90;;;;;;;28.83;38.22;101153.41;15684195;28;20041;-74
2021/08/14 17:01:25;;;;;;;1999.90;999.90;;;;;;;28.64;41.22;101149.34;15634491;28;20052;-75
2021/08/14 17:08:59;;;;;;;1999.90;999.90;;;;;;;28.22;43.08;101144.59;15622773;28;20045;-74
2021/08/14 17:16:31;;;;;;;1999.90;999.90;;;;;;;28.14;42.21;101149.72;15602130;28;20083;-75
2021/08/14 17:24:05;;;;;;;1999.90;999.90;;;;;;;28.04;43.29;101145.81;15619778;28;20510;-73
2021/08/14 17:31:38;;;;;;;1999.90;999.90;;;;;;;27.94;43.73;101137.44;15618224;28;20041;-75
2021/08/14 17:39:14;;;;;;;1999.90;999.90;;;;;;;27.83;46.69;101134.81;15626753;28;20111;-73
2021/08/14 17:46:48;;;;;;;1999.90;999.90;;;;;;;27.64;45.40;101116.34;15704200;28;20064;-75
2021/08/14 17:54:22;;;;;;;1999.90;999.90;;;;;;;27.50;45.77;101122.34;15749886;28;20044;-75
2021/08/14 18:01:55;;;;;;;1999.90;999.90;;;;;;;27.32;46.59;101117.78;15675030;28;20512;-76
2021/08/14 18:09:29;;;;;;;1999.90;999.90;;;;;;;27.08;47.44;101115.38;15683649;28;20069;-75
2021/08/14 18:17:05;;;;;;;1999.90;999.90;;;;;;;26.89;47.24;101120.63;15682084;28;20045;-74
2021/08/14 18:24:40;;;;;;;1999.90;999.90;;;;;;;26.65;48.11;101113.25;15661558;28;20041;-74
2021/08/14 18:32:15;;;;;;;1999.90;999.90;;;;;;;26.41;48.98;101118.94;15676745;28;20112;-76
2021/08/14 18:39:51;;;;;;;1999.90;999.90;;;;;;;26.22;49.61;101125.34;15677861;28;20049;-74
2021/08/14 18:47:24;;;;;;;1999.90;999.90;;;;;;;25.97;49.72;101124.88;15665318;28;20049;-74
2021/08/14 18:54:59;;;;;;;1999.90;999.90;;;;;;;25.74;50.07;101129.28;15687849;28;20056;-74
2021/08/14 19:02:31;;;;;;;1999.90;999.90;;;;;;;25.52;51.40;101127.84;15730346;28;20102;-73
2021/08/14 19:10:07;;;;;;;1999.90;999.90;;;;;;;25.36;51.37;101133.38;15719614;28;20083;-74
2021/08/14 19:17:40;;;;;;;1999.90;999.90;;;;;;;25.15;52.41;101115.22;15750890;28;20116;-72
2021/08/14 19:25:14;;;;;;;1999.90;999.90;;;;;;;25.01;53.09;101123.88;15735742;28;20046;-74
2021/08/14 19:32:47;;;;;;;1999.90;999.90;;;;;;;24.81;52.99;101120.03;15731754;28;20523;-74
2021/08/14 19:40:20;;;;;;;1999.90;999.90;;;;;;;24.72;54.81;101129.06;15751193;28;20415;-74
2021/08/14 19:47:52;;;;;;;1999.90;999.90;;;;;;;24.48;56.06;101137.38;15735043;28;20040;-74
2021/08/14 19:55:26;;;;;;;1999.90;999.90;;;;;;;24.44;55.06;101148.00;15754710;28;20051;-73
2021/08/14 20:02:59;;;;;;;1999.90;999.90;;;;;;;24.19;56.72;101150.19;15671930;28;20091;-74
2021/08/14 20:10:32;;;;;;;1999.90;999.90;;;;;;;24.04;56.87;101145.78;15705264;28;20068;-75
2021/08/14 20:18:05;;;;;;;1999.90;999.90;;;;;;;23.90;56.82;101150.34;15751618;28;20064;-76
2021/08/14 20:25:38;;;;;;;1999.90;999.90;;;;;;;23.72;57.37;101154.47;15753413;28;20047;-77
2021/08/14 20:33:10;;;;;;;1999.90;999.90;;;;;;;23.65;57.83;101158.16;15739749;28;20045;-76
2021/08/14 20:40:46;;;;;;;1999.90;999.90;;;;;;;23.51;58.67;101153.28;15722649;28;20041;-77
2021/08/14 20:48:18;;;;;;;1999.90;999.90;;;;;;;23.41;57.96;101156.97;15675733;28;20052;-76
2021/08/14 20:55:53;;;;;;;1999.90;999.90;;;;;;;23.42;57.97;101166.34;15654479;28;21471;-76
2021/08/14 21:03:25;;;;;;;1999.90;999.90;;;;;;;23.37;57.48;101167.56;15672646;28;20048;-75
2021/08/14 21:10:59;;;;;;;1999.90;999.90;;;;;;;23.29;57.14;101165.97;15690001;28;20124;-76
2021/08/14 21:18:32;;;;;;;1999.90;999.90;;;;;;;23.10;56.98;101167.19;15690996;28;20053;-76
2021/08/14 21:26:11;;;;;;;1999.90;999.90;;;;;;;23.01;58.79;101166.78;15683432;28;20094;-74
2021/08/14 21:33:52;;;;;;;1999.90;999.90;;;;;;;22.70;59.57;101160.66;15695926;28;20037;-74
2021/08/14 21:41:26;;;;;;;1999.90;999.90;;;;;;;22.51;59.97;101161.09;15683041;28;20053;-74
2021/08/14 21:48:59;;;;;;;1999.90;999.90;;;;;;;22.37;60.59;101164.69;15686912;22;20306;-62
2021/08/14 21:56:32;;;;;;;1999.90;999.90;;;;;;;22.17;61.02;101157.75;15677461;28;20040;-60
2021/08/14 22:04:04;;;;;;;1999.90;999.90;;;;;;;22.19;61.19;101158.97;15673505;28;20053;-61
2021/08/14 22:11:39;;;;;;;1999.90;999.90;;;;;;;22.08;61.96;101155.28;15668011;28;20182;-63
2021/08/14 22:19:11;;;;;;;1999.90;999.90;;;;;;;22.02;61.68;101159.72;15675115;28;20056;-60
2021/08/14 22:26:45;;;;;;;1999.90;999.90;;;;;;;21.98;61.83;101164.56;15672144;28;20099;-60
2021/08/14 22:34:17;;;;;;;1999.90;999.90;;;;;;;21.80;62.13;101155.97;15675343;28;20053;-60
2021/08/14 22:41:51;;;;;;;1999.90;999.90;;;;;;;21.74;63.19;101157.56;15675752;28;20073;-61
2021/08/14 22:49:23;;;;;;;1999.90;999.90;;;;;;;21.73;63.19;101150.25;15659116;28;20131;-60
2021/08/14 22:56:57;;;;;;;1999.90;999.90;;;;;;;21.66;63.07;101155.09;15663838;28;20064;-62
2021/08/14 23:04:29;;;;;;;1999.90;999.90;;;;;;;21.64;63.16;101152.66;15647856;28;20482;-61
2021/08/14 23:12:03;;;;;;;1999.90;999.90;;;;;;;21.72;63.11;101159.19;15670579;28;20045;-60
2021/08/14 23:19:35;;;;;;;1999.90;999.90;;;;;;;21.55;63.00;101157.88;15654562;28;20568;-60
2021/08/14 23:27:08;;;;;;;1999.90;999.90;;;;;;;21.37;64.22;101146.44;15672505;28;20574;-60
2021/08/14 23:34:42;;;;;;;1999.90;999.90;;;;;;;21.12;65.26;101151.09;15675966;28;20041;-60
2021/08/14 23:42:15;;;;;;;1999.90;999.90;;;;;;;20.97;65.13;101144.50;15649038;28;20037;-60
2021/08/14 23:49:48;;;;;;;1999.90;999.90;;;;;;;20.87;65.50;101139.56;15655468;28;20053;-58
2021/08/14 23:57:21;;;;;;;1999.90;999.90;;;;;;;20.74;64.82;101141.91;15650466;28;20033;-59
